createdAt,value
2019-03-24T05:00:18.412Z,0
2019-03-24T05:03:46.248Z,5.625
2019-03-24T05:07:14.082Z,5.625
2019-03-24T05:10:41.898Z,11.25
2019-03-24T05:14:09.737Z,11.25
2019-03-24T05:17:37.577Z,16.875
2019-03-24T05:21:05.397Z,16.875
2019-03-24T05:24:33.236Z,22.5
2019-03-24T05:28:01.072Z,22.5
2019-03-24T05:31:28.914Z,28.125
2019-03-24T05:34:56.751Z,28.125
2019-03-24T05:38:24.586Z,33.75
2019-03-24T05:41:53.410Z,39.375
2019-03-24T05:45:21.238Z,45
2019-03-24T05:48:49.073Z,50.625
2019-03-24T05:52:17.924Z,50.625
2019-03-24T05:55:45.757Z,56.25
2019-03-24T05:59:13.588Z,61.875
2019-03-24T06:02:41.404Z,67.5
2019-03-24T06:06:09.254Z,73.125
2019-03-24T06:09:37.085Z,78.75
2019-03-24T06:13:04.990Z,90
2019-03-24T06:16:32.765Z,95.625
2019-03-24T06:20:00.619Z,106.875
2019-03-24T06:23:28.636Z,106.875
2019-03-24T06:26:56.533Z,106.875
2019-03-24T06:30:24.395Z,112.5
2019-03-24T06:33:52.234Z,112.5
2019-03-24T06:37:20.132Z,106.875
2019-03-24T06:40:47.966Z,118.125
2019-03-24T06:44:15.852Z,135
2019-03-24T06:47:43.687Z,146.25
2019-03-24T06:51:11.566Z,146.25
2019-03-24T06:54:39.396Z,140.625
2019-03-24T06:58:07.242Z,163.125
2019-03-24T07:01:35.083Z,174.375
2019-03-24T07:05:02.916Z,168.75
2019-03-24T07:08:30.745Z,163.125
2019-03-24T07:12:00.146Z,151.875
2019-03-24T07:15:27.426Z,151.875
2019-03-24T07:18:55.256Z,163.125
2019-03-24T07:22:23.127Z,191.25
2019-03-24T07:25:50.966Z,191.25
2019-03-24T07:29:18.790Z,174.375
2019-03-24T07:32:46.624Z,168.75
2019-03-24T07:36:14.470Z,191.25
2019-03-24T07:39:43.281Z,258.75
2019-03-24T07:43:11.127Z,230.625
2019-03-24T07:46:38.962Z,213.75
2019-03-24T07:50:06.802Z,191.25
2019-03-24T07:53:35.626Z,202.5
2019-03-24T07:57:04.449Z,236.25
2019-03-24T08:00:32.475Z,253.125
2019-03-24T08:04:00.300Z,264.375
2019-03-24T08:07:28.153Z,275.625
2019-03-24T08:10:55.986Z,286.875
2019-03-24T08:14:23.834Z,303.75
2019-03-24T08:17:51.666Z,315
2019-03-24T08:21:19.500Z,331.875
2019-03-24T08:24:47.340Z,331.875
2019-03-24T08:28:15.166Z,348.75
2019-03-24T08:31:42.998Z,371.25
2019-03-24T08:35:10.914Z,371.25
2019-03-24T08:38:38.749Z,371.25
2019-03-24T08:42:06.583Z,365.625
2019-03-24T08:45:34.430Z,388.125
2019-03-24T08:49:02.249Z,376.875
2019-03-24T08:52:30.091Z,388.125
2019-03-24T08:55:57.924Z,405
2019-03-24T08:59:25.748Z,416.25
2019-03-24T09:02:53.585Z,421.875
2019-03-24T09:06:21.465Z,410.625
2019-03-24T09:09:49.290Z,354.375
2019-03-24T09:13:17.131Z,371.25
2019-03-24T09:16:44.965Z,365.625
2019-03-24T09:20:12.780Z,354.375
2019-03-24T09:23:41.602Z,337.5
2019-03-24T09:27:10.426Z,343.125
2019-03-24T09:30:38.254Z,331.875
2019-03-24T09:34:06.086Z,326.25
2019-03-24T09:37:33.926Z,320.625
2019-03-24T09:41:01.744Z,303.75
2019-03-24T09:44:29.580Z,298.125
2019-03-24T09:47:57.413Z,315
2019-03-24T09:51:25.237Z,331.875
2019-03-24T09:54:53.088Z,315
2019-03-24T09:58:20.956Z,281.25
2019-03-24T10:01:48.764Z,275.625
2019-03-24T10:05:16.609Z,241.875
2019-03-24T10:08:48.407Z,286.875
2019-03-24T10:12:16.244Z,315
2019-03-24T10:15:44.142Z,315
2019-03-24T10:19:14.962Z,315
2019-03-24T10:22:42.786Z,315
2019-03-24T10:26:10.630Z,337.5
2019-03-24T10:29:38.480Z,343.125
2019-03-24T10:33:06.335Z,348.75
2019-03-24T10:36:34.233Z,371.25
2019-03-24T10:40:03.048Z,405
2019-03-24T10:43:30.884Z,393.75
2019-03-24T10:46:58.763Z,416.25
2019-03-24T10:50:26.546Z,365.625
2019-03-24T10:53:54.393Z,360
2019-03-24T10:57:22.198Z,455.625
2019-03-24T11:00:50.036Z,517.5
2019-03-24T11:04:18.862Z,511.875
2019-03-24T11:07:46.747Z,382.5
2019-03-24T11:11:14.567Z,461.25
2019-03-24T11:14:42.421Z,466.875
2019-03-24T11:18:10.253Z,438.75
2019-03-24T11:21:38.065Z,416.25
2019-03-24T11:25:05.895Z,472.5
2019-03-24T11:28:34.784Z,652.5
2019-03-24T11:32:02.706Z,832.5
2019-03-24T11:35:30.644Z,1209.375
2019-03-24T11:38:59.476Z,748.125
2019-03-24T11:42:27.408Z,1980
2019-03-24T11:45:55.229Z,1985.625
2019-03-24T11:49:23.076Z,2621.25
2019-03-24T11:52:50.920Z,2896.875
2019-03-24T11:56:18.745Z,528.75
2019-03-24T11:59:46.657Z,3256.875
2019-03-24T12:03:14.496Z,2587.5
2019-03-24T12:06:42.331Z,3465
2019-03-24T12:10:10.175Z,3386.25
2019-03-24T12:13:38.016Z,3414.375
2019-03-24T12:17:05.844Z,3442.5
2019-03-24T12:20:33.698Z,3611.25
2019-03-24T12:24:01.545Z,3656.25
2019-03-24T12:27:29.399Z,3549.375
2019-03-24T12:30:57.240Z,3611.25
2019-03-24T12:34:26.189Z,3667.5
2019-03-24T12:37:54.117Z,2953.125
2019-03-24T12:41:21.984Z,2356.875
2019-03-24T12:44:51.180Z,3048.75
2019-03-24T12:48:26.654Z,3898.125
2019-03-24T12:51:54.412Z,3690
2019-03-24T12:55:22.264Z,3819.375
2019-03-24T12:58:50.107Z,3858.75
2019-03-24T13:02:17.955Z,3560.625
2019-03-24T13:05:45.785Z,1861.875
2019-03-24T13:09:13.638Z,793.125
2019-03-24T13:12:41.490Z,2115
2019-03-24T13:16:09.313Z,2868.75
2019-03-24T13:19:38.150Z,3808.125
2019-03-24T13:23:05.992Z,3667.5
2019-03-24T13:26:33.819Z,3639.375
2019-03-24T13:30:01.845Z,3622.5
2019-03-24T13:33:29.717Z,573.75
2019-03-24T13:36:57.566Z,3425.625
2019-03-24T13:40:25.401Z,3701.25
2019-03-24T13:43:53.245Z,2728.125
2019-03-24T13:47:21.094Z,3510
2019-03-24T13:50:48.943Z,1755
2019-03-24T13:54:16.785Z,3453.75
2019-03-24T13:57:44.645Z,1310.625
2019-03-24T14:01:12.549Z,3262.5
2019-03-24T14:04:40.403Z,3240
2019-03-24T14:08:08.259Z,3116.25
2019-03-24T14:11:36.097Z,2986.875
2019-03-24T14:15:04.933Z,3127.5
2019-03-24T14:18:32.795Z,2818.125
2019-03-24T14:22:01.611Z,2885.625
2019-03-24T14:25:29.439Z,2126.25
2019-03-24T14:28:57.293Z,888.75
2019-03-24T14:32:25.141Z,388.125
2019-03-24T14:35:53.961Z,360
2019-03-24T14:39:22.794Z,360
2019-03-24T14:42:50.649Z,596.25
2019-03-24T14:46:18.488Z,787.5
2019-03-24T14:49:46.349Z,331.875
2019-03-24T14:53:14.199Z,360
2019-03-24T14:56:42.023Z,2531.25
2019-03-24T15:00:09.870Z,2486.25
2019-03-24T15:03:37.740Z,2548.125
2019-03-24T15:07:05.575Z,860.625
2019-03-24T15:10:33.416Z,2306.25
2019-03-24T15:14:01.259Z,2143.125
2019-03-24T15:17:30.088Z,2216.25
2019-03-24T15:21:05.776Z,1963.125
2019-03-24T15:24:31.721Z,1693.125
2019-03-24T15:27:59.567Z,2064.375
2019-03-24T15:31:27.425Z,315
2019-03-24T15:34:55.261Z,376.875
2019-03-24T15:38:23.122Z,1642.5
2019-03-24T15:41:50.950Z,1721.25
2019-03-24T15:45:18.804Z,860.625
2019-03-24T15:48:46.657Z,1063.125
2019-03-24T15:52:15.505Z,596.25
2019-03-24T15:55:43.348Z,230.625
2019-03-24T15:59:11.196Z,247.5
2019-03-24T16:02:39.025Z,213.75
2019-03-24T16:06:06.868Z,174.375
2019-03-24T16:09:34.717Z,196.875
2019-03-24T16:13:02.561Z,163.125
2019-03-24T16:16:30.434Z,118.125
2019-03-24T16:19:58.297Z,146.25
2019-03-24T16:23:26.270Z,129.375
2019-03-24T16:26:54.099Z,123.75
2019-03-24T16:30:21.944Z,123.75
2019-03-24T16:33:49.889Z,118.125
2019-03-24T16:37:17.712Z,106.875
2019-03-24T16:40:46.540Z,101.25
2019-03-24T16:44:14.384Z,101.25
2019-03-24T16:47:42.203Z,95.625
2019-03-24T16:51:11.039Z,78.75
2019-03-24T16:54:38.893Z,56.25
2019-03-24T16:58:07.546Z,45
2019-03-24T17:01:35.379Z,45
2019-03-24T17:05:03.243Z,39.375
2019-03-24T17:08:31.074Z,33.75
2019-03-24T17:11:59.912Z,28.125
2019-03-24T17:15:27.745Z,22.5
2019-03-24T17:18:55.590Z,16.875
2019-03-24T17:22:24.430Z,11.25
2019-03-24T17:25:52.273Z,5.625
2019-03-24T17:29:20.117Z,5.625
2019-03-24T17:32:47.947Z,5.625
2019-03-24T17:36:15.815Z,0
2019-03-24T17:39:43.821Z,0
2019-03-24T17:43:12.755Z,0
2019-03-24T17:46:41.155Z,0
2019-03-24T17:50:08.997Z,0
2019-03-24T17:53:37.816Z,0
2019-03-24T17:57:05.654Z,0
2019-03-24T18:00:34.496Z,0
2019-03-24T18:04:02.370Z,0
2019-03-24T18:07:30.886Z,0
2019-03-24T18:10:58.731Z,0
2019-03-24T18:14:26.555Z,0
2019-03-24T18:17:54.397Z,0
2019-03-24T18:21:22.240Z,0
2019-03-24T18:24:50.090Z,0
2019-03-24T18:28:17.919Z,0
2019-03-24T18:31:45.812Z,0
2019-03-24T18:35:14.617Z,0
2019-03-24T18:38:42.467Z,0
2019-03-24T18:42:10.314Z,0
2019-03-24T18:45:38.179Z,0
2019-03-24T18:49:06.008Z,0
2019-03-24T18:52:33.855Z,0
2019-03-24T18:56:01.685Z,0
2019-03-24T18:59:30.545Z,0
2019-03-24T19:02:58.421Z,0
2019-03-24T19:06:26.389Z,0
2019-03-24T19:09:54.248Z,0
2019-03-24T19:13:22.181Z,0
2019-03-24T19:16:50.080Z,0
2019-03-24T19:20:18.680Z,0
2019-03-24T19:23:46.517Z,0
2019-03-24T19:27:14.393Z,0
2019-03-24T19:30:42.257Z,0
2019-03-24T19:34:10.117Z,0
2019-03-24T19:37:38.060Z,0
2019-03-24T19:41:05.941Z,0
2019-03-24T19:44:33.859Z,0
2019-03-24T19:48:02.728Z,0
2019-03-24T19:51:31.636Z,0
2019-03-24T19:55:00.547Z,0
2019-03-24T19:58:29.407Z,0
2019-03-24T20:01:57.332Z,0
2019-03-24T20:05:26.987Z,0
2019-03-24T20:08:55.198Z,0
2019-03-24T20:12:23.167Z,0
2019-03-24T20:15:51.090Z,0
2019-03-24T20:19:18.941Z,0
2019-03-24T20:22:56.203Z,0
2019-03-24T20:26:19.637Z,0
2019-03-24T20:29:47.566Z,0
2019-03-24T20:33:15.435Z,0
2019-03-24T20:36:43.287Z,0
2019-03-24T20:40:11.136Z,0
2019-03-24T20:43:39.037Z,0
2019-03-24T20:47:06.915Z,0
2019-03-24T20:50:34.746Z,0
2019-03-24T20:54:02.654Z,0
2019-03-24T20:57:30.487Z,0
2019-03-24T21:00:58.329Z,0
2019-03-24T21:04:26.165Z,0
2019-03-24T21:07:53.991Z,0
2019-03-24T21:11:21.816Z,0
2019-03-24T21:14:49.670Z,0
2019-03-24T21:18:17.495Z,0
2019-03-24T21:21:45.312Z,0
2019-03-24T21:25:13.134Z,0
2019-03-24T21:28:40.977Z,0
2019-03-24T21:32:08.795Z,0
2019-03-24T21:35:37.642Z,0
2019-03-24T21:39:05.466Z,0
2019-03-24T21:42:33.295Z,0
2019-03-24T21:46:01.122Z,0
2019-03-24T21:49:28.945Z,0
2019-03-24T21:52:56.763Z,0
2019-03-24T21:56:25.597Z,0
2019-03-24T21:59:54.409Z,0
2019-03-24T22:03:22.261Z,0
2019-03-24T22:06:51.061Z,0
2019-03-24T22:10:18.898Z,0
2019-03-24T22:13:47.865Z,0
2019-03-24T22:17:15.719Z,0
2019-03-24T22:20:49.001Z,0
2019-03-24T22:24:16.349Z,0
2019-03-24T22:27:45.127Z,0
2019-03-24T22:31:13.950Z,0
2019-03-24T22:34:41.788Z,0
2019-03-24T22:38:09.617Z,0
2019-03-24T22:41:37.435Z,0
2019-03-24T22:45:05.316Z,0
2019-03-24T22:48:33.151Z,0
2019-03-24T22:52:07.370Z,0
2019-03-24T22:55:33.759Z,0
2019-03-24T22:59:02.509Z,0
